createdAt,value
2018-07-29T00:00:16.200Z,1005.5
2018-07-29T00:01:18.233Z,1005.5
2018-07-29T00:02:20.283Z,1005.5
2018-07-29T00:03:22.324Z,1005.5
2018-07-29T00:04:24.661Z,1005.5
2018-07-29T00:05:26.703Z,1005.5
2018-07-29T00:06:28.752Z,1005.5
2018-07-29T00:07:30.796Z,1005.5
2018-07-29T00:08:33.125Z,1005.4
2018-07-29T00:09:35.177Z,1005.4
2018-07-29T00:10:37.209Z,1005.4
2018-07-29T00:11:39.254Z,1005.4
2018-07-29T00:12:41.293Z,1005.4
2018-07-29T00:13:43.625Z,1005.5
2018-07-29T00:14:45.662Z,1005.5
2018-07-29T00:15:47.711Z,1005.5
2018-07-29T00:16:50.142Z,1005.5
2018-07-29T00:17:52.173Z,1005.6
2018-07-29T00:18:54.228Z,1005.5
2018-07-29T00:19:56.576Z,1005.6
2018-07-29T00:20:58.611Z,1005.6
2018-07-29T00:22:01.046Z,1005.7
2018-07-29T00:23:03.092Z,1005.8
2018-07-29T00:24:05.519Z,1005.7
2018-07-29T00:25:07.848Z,1005.8
2018-07-29T00:26:09.893Z,1005.8
2018-07-29T00:27:11.929Z,1005.9
2018-07-29T00:28:14.541Z,1005.9
2018-07-29T00:29:16.593Z,1005.9
2018-07-29T00:30:18.634Z,1006
2018-07-29T00:31:20.685Z,1006
2018-07-29T00:32:22.734Z,1006
2018-07-29T00:33:24.771Z,1006
2018-07-29T00:34:26.825Z,1006
2018-07-29T00:35:28.868Z,1005.9
2018-07-29T00:36:30.924Z,1005.9
2018-07-29T00:37:33.625Z,1005.9
2018-07-29T00:38:35.679Z,1005.9
2018-07-29T00:39:37.710Z,1005.9
2018-07-29T00:40:39.755Z,1006
2018-07-29T00:41:41.801Z,1005.9
2018-07-29T00:42:43.838Z,1006
2018-07-29T00:43:45.884Z,1005.9
2018-07-29T00:44:48.314Z,1006
2018-07-29T00:45:50.359Z,1005.9
2018-07-29T00:46:52.397Z,1005.9
2018-07-29T00:47:54.450Z,1005.9
2018-07-29T00:48:56.772Z,1005.8
2018-07-29T00:49:59.091Z,1005.8
2018-07-29T00:51:01.144Z,1005.8
2018-07-29T00:52:03.558Z,1005.8
2018-07-29T00:53:05.612Z,1005.8
2018-07-29T00:54:08.486Z,1005.8
2018-07-29T00:55:10.525Z,1005.8
2018-07-29T00:56:12.563Z,1005.8
2018-07-29T00:57:14.601Z,1005.9
2018-07-29T00:58:16.969Z,1005.9
2018-07-29T00:59:19.006Z,1006
2018-07-29T01:00:21.039Z,1006
2018-07-29T01:01:23.080Z,1006
2018-07-29T01:02:25.125Z,1006
2018-07-29T01:03:27.165Z,1006
2018-07-29T01:04:29.211Z,1006
2018-07-29T01:05:31.259Z,1006
2018-07-29T01:06:33.296Z,1006
2018-07-29T01:07:35.350Z,1006
2018-07-29T01:08:37.398Z,1006.1
2018-07-29T01:09:39.433Z,1006.2
2018-07-29T01:10:41.760Z,1006.2
2018-07-29T01:11:44.596Z,1006.2
2018-07-29T01:12:47.015Z,1006.2
2018-07-29T01:13:49.060Z,1006.2
2018-07-29T01:14:51.186Z,1006.3
2018-07-29T01:15:53.500Z,1006.3
2018-07-29T01:16:55.550Z,1006.3
2018-07-29T01:17:57.589Z,1006.4
2018-07-29T01:18:59.637Z,1006.3
2018-07-29T01:20:01.676Z,1006.3
2018-07-29T01:21:03.724Z,1006.4
2018-07-29T01:22:06.053Z,1006.3
2018-07-29T01:23:08.089Z,1006.4
2018-07-29T01:24:10.141Z,1006.4
2018-07-29T01:25:12.557Z,1006.4
2018-07-29T01:26:14.888Z,1006.4
2018-07-29T01:27:16.935Z,1006.4
2018-07-29T01:28:18.975Z,1006.3
2018-07-29T01:29:21.009Z,1006.4
2018-07-29T01:30:23.063Z,1006.4
2018-07-29T01:31:25.386Z,1006.3
2018-07-29T01:32:27.428Z,1006.3
2018-07-29T01:33:29.486Z,1006.4
2018-07-29T01:34:31.527Z,1006.4
2018-07-29T01:35:33.843Z,1006.3
2018-07-29T01:36:35.888Z,1006.4
2018-07-29T01:37:37.924Z,1006.4
2018-07-29T01:38:39.964Z,1006.3
2018-07-29T01:39:42.014Z,1006.3
2018-07-29T01:40:44.044Z,1006.4
2018-07-29T01:41:46.094Z,1006.3
2018-07-29T01:42:48.137Z,1006.3
2018-07-29T01:43:50.570Z,1006.4
2018-07-29T01:44:52.607Z,1006.4
2018-07-29T01:45:54.656Z,1006.4
2018-07-29T01:46:56.699Z,1006.4
2018-07-29T01:47:59.024Z,1006.3
2018-07-29T01:49:01.366Z,1006.3
2018-07-29T01:50:03.398Z,1006.3
2018-07-29T01:51:05.727Z,1006.3
2018-07-29T01:52:07.762Z,1006.3
2018-07-29T01:53:09.811Z,1006.3
2018-07-29T01:54:11.842Z,1006.3
2018-07-29T01:55:14.199Z,1006.4
2018-07-29T01:56:16.246Z,1006.4
2018-07-29T01:57:18.276Z,1006.4
2018-07-29T01:58:20.328Z,1006.4
2018-07-29T01:59:22.751Z,1006.4
2018-07-29T02:00:24.789Z,1006.4
2018-07-29T02:01:26.828Z,1006.4
2018-07-29T02:02:28.873Z,1006.4
2018-07-29T02:03:31.188Z,1006.3
2018-07-29T02:04:33.233Z,1006.4
2018-07-29T02:05:35.661Z,1006.3
2018-07-29T02:06:37.976Z,1006.3
2018-07-29T02:07:40.308Z,1006.3
2018-07-29T02:08:42.358Z,1006.3
2018-07-29T02:09:44.391Z,1006.3
2018-07-29T02:10:46.725Z,1006.3
2018-07-29T02:11:49.157Z,1006.3
2018-07-29T02:12:51.206Z,1006.3
2018-07-29T02:13:53.239Z,1006.3
2018-07-29T02:14:55.288Z,1006.3
2018-07-29T02:15:57.609Z,1006.3
2018-07-29T02:16:59.649Z,1006.3
2018-07-29T02:18:01.693Z,1006.3
2018-07-29T02:19:04.022Z,1006.3
2018-07-29T02:20:06.065Z,1006.3
2018-07-29T02:21:08.166Z,1006.4
2018-07-29T02:22:10.156Z,1006.4
2018-07-29T02:23:12.187Z,1006.4
2018-07-29T02:24:14.614Z,1006.4
2018-07-29T02:25:16.650Z,1006.4
2018-07-29T02:26:19.393Z,1006.4
2018-07-29T02:27:21.427Z,1006.4
2018-07-29T02:28:23.476Z,1006.4
2018-07-29T02:29:25.521Z,1006.4
2018-07-29T02:30:27.548Z,1006.4
2018-07-29T02:31:29.602Z,1006.4
2018-07-29T02:32:31.930Z,1006.4
2018-07-29T02:33:34.356Z,1006.4
2018-07-29T02:34:36.402Z,1006.4
2018-07-29T02:35:38.451Z,1006.4
2018-07-29T02:36:40.486Z,1006.4
2018-07-29T02:37:42.547Z,1006.5
2018-07-29T02:38:44.598Z,1006.5
2018-07-29T02:39:47.481Z,1006.5
2018-07-29T02:40:49.522Z,1006.5
2018-07-29T02:41:52.525Z,1006.5
2018-07-29T02:42:54.854Z,1006.5
2018-07-29T02:43:56.902Z,1006.5
2018-07-29T02:44:59.332Z,1006.6
2018-07-29T02:46:01.373Z,1006.6
2018-07-29T02:47:03.992Z,1006.5
2018-07-29T02:48:06.030Z,1006.6
2018-07-29T02:49:08.354Z,1006.6
2018-07-29T02:50:10.683Z,1006.6
2018-07-29T02:51:12.726Z,1006.6
2018-07-29T02:52:14.773Z,1006.6
2018-07-29T02:53:16.819Z,1006.7
2018-07-29T02:54:18.853Z,1006.7
2018-07-29T02:55:20.907Z,1006.7
2018-07-29T02:56:22.938Z,1006.6
2018-07-29T02:57:24.985Z,1006.6
2018-07-29T02:58:27.020Z,1006.7
2018-07-29T02:59:29.066Z,1006.7
2018-07-29T03:00:31.106Z,1006.7
2018-07-29T03:01:33.432Z,1006.7
2018-07-29T03:02:35.759Z,1006.7
2018-07-29T03:03:38.070Z,1006.7
2018-07-29T03:04:40.510Z,1006.7
2018-07-29T03:05:42.557Z,1006.7
2018-07-29T03:06:44.595Z,1006.7
2018-07-29T03:07:46.633Z,1006.8
2018-07-29T03:08:48.684Z,1006.8
2018-07-29T03:09:50.720Z,1006.8
2018-07-29T03:10:53.080Z,1006.8
2018-07-29T03:11:55.697Z,1006.8
2018-07-29T03:12:58.010Z,1006.7
2018-07-29T03:14:00.624Z,1006.8
2018-07-29T03:15:02.677Z,1006.8
2018-07-29T03:16:05.000Z,1006.8
2018-07-29T03:17:07.442Z,1006.8
2018-07-29T03:18:10.153Z,1006.8
2018-07-29T03:19:12.187Z,1006.7
2018-07-29T03:20:14.239Z,1006.7
2018-07-29T03:21:16.572Z,1006.7
2018-07-29T03:22:18.996Z,1006.8
2018-07-29T03:23:21.328Z,1006.8
2018-07-29T03:24:23.375Z,1006.9
2018-07-29T03:25:25.409Z,1006.9
2018-07-29T03:26:27.831Z,1006.8
2018-07-29T03:27:29.880Z,1006.9
2018-07-29T03:28:31.920Z,1006.8
2018-07-29T03:29:33.951Z,1006.9
2018-07-29T03:30:36.279Z,1006.9
2018-07-29T03:31:38.621Z,1006.9
2018-07-29T03:32:41.242Z,1006.9
2018-07-29T03:33:43.277Z,1007
2018-07-29T03:34:45.393Z,1007
2018-07-29T03:35:47.368Z,1007
2018-07-29T03:36:49.676Z,1007
2018-07-29T03:37:51.728Z,1007
2018-07-29T03:38:54.164Z,1007
2018-07-29T03:39:56.203Z,1007
2018-07-29T03:40:58.239Z,1007.1
2018-07-29T03:42:00.584Z,1007
2018-07-29T03:43:02.914Z,1007
2018-07-29T03:44:04.959Z,1007.1
2018-07-29T03:45:07.295Z,1007.1
2018-07-29T03:46:09.326Z,1007.1
2018-07-29T03:47:11.370Z,1007.1
2018-07-29T03:48:13.414Z,1007.1
2018-07-29T03:49:15.453Z,1007.1
2018-07-29T03:50:17.495Z,1007.1
2018-07-29T03:51:19.539Z,1007.1
2018-07-29T03:52:21.572Z,1007.1
2018-07-29T03:53:23.626Z,1007.1
2018-07-29T03:54:25.943Z,1007.1
2018-07-29T03:55:27.988Z,1007.1
2018-07-29T03:56:30.024Z,1007.1
2018-07-29T03:57:32.070Z,1007.1
2018-07-29T03:58:34.110Z,1007.1
2018-07-29T03:59:36.535Z,1007.1
2018-07-29T04:00:38.575Z,1007.1
2018-07-29T04:01:40.606Z,1007.2
2018-07-29T04:02:42.657Z,1007.2
2018-07-29T04:03:44.693Z,1007.3
2018-07-29T04:04:46.737Z,1007.3
2018-07-29T04:05:49.157Z,1007.3
2018-07-29T04:06:51.484Z,1007.3
2018-07-29T04:07:53.517Z,1007.3
2018-07-29T04:08:55.554Z,1007.3
2018-07-29T04:09:57.603Z,1007.3
2018-07-29T04:10:59.631Z,1007.2
2018-07-29T04:12:02.104Z,1007.3
2018-07-29T04:13:04.100Z,1007.2
2018-07-29T04:14:06.530Z,1007.2
2018-07-29T04:15:08.565Z,1007.3
2018-07-29T04:16:10.612Z,1007.2
2018-07-29T04:17:12.645Z,1007.3
2018-07-29T04:18:14.686Z,1007.3
2018-07-29T04:19:16.733Z,1007.3
2018-07-29T04:20:18.770Z,1007.3
2018-07-29T04:21:20.805Z,1007.3
2018-07-29T04:22:22.848Z,1007.3
2018-07-29T04:23:24.883Z,1007.3
2018-07-29T04:24:26.917Z,1007.3
2018-07-29T04:25:28.962Z,1007.4
2018-07-29T04:26:30.993Z,1007.4
2018-07-29T04:27:33.034Z,1007.4
2018-07-29T04:28:35.082Z,1007.5
2018-07-29T04:29:37.131Z,1007.5
2018-07-29T04:30:39.163Z,1007.5
2018-07-29T04:31:41.206Z,1007.5
2018-07-29T04:32:43.532Z,1007.5
2018-07-29T04:33:45.568Z,1007.6
2018-07-29T04:34:47.624Z,1007.6
2018-07-29T04:35:49.652Z,1007.6
2018-07-29T04:36:51.692Z,1007.6
2018-07-29T04:37:53.731Z,1007.6
2018-07-29T04:38:55.773Z,1007.7
2018-07-29T04:39:58.109Z,1007.7
2018-07-29T04:41:00.155Z,1007.7
2018-07-29T04:42:02.202Z,1007.7
2018-07-29T04:43:04.538Z,1007.7
2018-07-29T04:44:06.580Z,1007.7
2018-07-29T04:45:08.622Z,1007.7
2018-07-29T04:46:10.666Z,1007.7
2018-07-29T04:47:12.708Z,1007.7
2018-07-29T04:48:15.127Z,1007.7
2018-07-29T04:49:17.174Z,1007.7
2018-07-29T04:50:19.206Z,1007.8
2018-07-29T04:51:21.954Z,1007.8
2018-07-29T04:52:23.965Z,1007.8
2018-07-29T04:53:26.011Z,1007.9
2018-07-29T04:54:28.044Z,1007.8
2018-07-29T04:55:30.475Z,1007.8
2018-07-29T04:56:32.899Z,1007.8
2018-07-29T04:57:34.932Z,1007.9
2018-07-29T04:58:37.357Z,1007.9
2018-07-29T04:59:39.388Z,1007.9
2018-07-29T05:00:41.721Z,1007.9
2018-07-29T05:01:43.764Z,1007.9
2018-07-29T05:02:46.402Z,1007.9
2018-07-29T05:03:48.435Z,1007.9
2018-07-29T05:04:50.481Z,1007.9
2018-07-29T05:05:52.805Z,1007.9
2018-07-29T05:06:55.503Z,1007.9
2018-07-29T05:07:57.555Z,1007.9
2018-07-29T05:08:59.587Z,1007.9
2018-07-29T05:10:01.626Z,1007.9
2018-07-29T05:11:03.965Z,1008
2018-07-29T05:12:06.393Z,1007.9
2018-07-29T05:13:08.431Z,1007.9
2018-07-29T05:14:10.476Z,1008
2018-07-29T05:15:12.519Z,1008
2018-07-29T05:16:14.548Z,1008
2018-07-29T05:17:16.602Z,1008
2018-07-29T05:18:19.027Z,1008
2018-07-29T05:19:21.062Z,1008
2018-07-29T05:20:23.099Z,1008
2018-07-29T05:21:25.140Z,1008.1
2018-07-29T05:22:27.178Z,1008.1
2018-07-29T05:23:29.212Z,1008.1
2018-07-29T05:24:31.254Z,1008.1
2018-07-29T05:25:33.300Z,1008.1
2018-07-29T05:26:35.343Z,1008
2018-07-29T05:27:37.373Z,1008
2018-07-29T05:28:39.419Z,1008
2018-07-29T05:29:41.458Z,1008
2018-07-29T05:30:43.775Z,1008
2018-07-29T05:31:46.208Z,1008
2018-07-29T05:32:48.240Z,1008
2018-07-29T05:33:50.285Z,1008
2018-07-29T05:34:52.324Z,1008
2018-07-29T05:35:54.370Z,1008
2018-07-29T05:36:56.409Z,1008
2018-07-29T05:37:58.453Z,1008
2018-07-29T05:39:00.781Z,1008.1
2018-07-29T05:40:03.398Z,1008
2018-07-29T05:41:05.732Z,1008
2018-07-29T05:42:07.763Z,1008
2018-07-29T05:43:09.804Z,1008
2018-07-29T05:44:11.839Z,1008
2018-07-29T05:45:14.330Z,1008
2018-07-29T05:46:16.693Z,1008
2018-07-29T05:47:18.738Z,1008
2018-07-29T05:48:20.780Z,1008
2018-07-29T05:49:22.809Z,1008.1
2018-07-29T05:50:24.860Z,1008.1
2018-07-29T05:51:26.898Z,1008.1
2018-07-29T05:52:28.932Z,1008.1
2018-07-29T05:53:30.981Z,1008.1
2018-07-29T05:54:33.312Z,1008.1
2018-07-29T05:55:35.384Z,1008.1
2018-07-29T05:56:37.396Z,1008.1
2018-07-29T05:57:39.432Z,1008.2
2018-07-29T05:58:41.847Z,1008.1
2018-07-29T05:59:44.561Z,1008.2
2018-07-29T06:00:46.598Z,1008.2
2018-07-29T06:01:48.642Z,1008.2
2018-07-29T06:02:50.679Z,1008.2
2018-07-29T06:03:52.715Z,1008.2
2018-07-29T06:04:54.761Z,1008.2
2018-07-29T06:05:56.795Z,1008.2
2018-07-29T06:06:58.839Z,1008.3
2018-07-29T06:08:00.883Z,1008.3
2018-07-29T06:09:03.321Z,1008.3
2018-07-29T06:10:05.358Z,1008.3
2018-07-29T06:11:07.406Z,1008.3
2018-07-29T06:12:09.449Z,1008.3
2018-07-29T06:13:11.480Z,1008.3
2018-07-29T06:14:13.826Z,1008.3
2018-07-29T06:15:16.148Z,1008.4
2018-07-29T06:16:18.465Z,1008.3
2018-07-29T06:17:20.886Z,1008.3
2018-07-29T06:18:22.947Z,1008.3
2018-07-29T06:19:24.992Z,1008.3
2018-07-29T06:20:27.022Z,1008.3
2018-07-29T06:21:29.456Z,1008.4
2018-07-29T06:22:31.483Z,1008.4
2018-07-29T06:23:33.821Z,1008.4
2018-07-29T06:24:35.866Z,1008.4
2018-07-29T06:25:37.931Z,1008.4
2018-07-29T06:26:39.935Z,1008.4
2018-07-29T06:27:41.976Z,1008.4
2018-07-29T06:28:44.017Z,1008.4
2018-07-29T06:29:46.059Z,1008.4
2018-07-29T06:30:48.097Z,1008.5
2018-07-29T06:31:50.126Z,1008.5
2018-07-29T06:32:52.168Z,1008.5
2018-07-29T06:33:54.216Z,1008.5
2018-07-29T06:34:56.249Z,1008.5
2018-07-29T06:35:58.303Z,1008.5
2018-07-29T06:37:00.357Z,1008.5
2018-07-29T06:38:02.395Z,1008.5
2018-07-29T06:39:04.456Z,1008.6
2018-07-29T06:40:06.493Z,1008.5
2018-07-29T06:41:08.535Z,1008.6
2018-07-29T06:42:10.864Z,1008.6
2018-07-29T06:43:13.203Z,1008.6
2018-07-29T06:44:15.243Z,1008.6
2018-07-29T06:45:17.282Z,1008.7
2018-07-29T06:46:19.328Z,1008.6
2018-07-29T06:47:21.359Z,1008.6
2018-07-29T06:48:23.410Z,1008.6
2018-07-29T06:49:25.818Z,1008.6
2018-07-29T06:50:27.863Z,1008.6
2018-07-29T06:51:30.297Z,1008.6
2018-07-29T06:52:32.346Z,1008.6
2018-07-29T06:53:34.768Z,1008.6
2018-07-29T06:54:37.373Z,1008.7
2018-07-29T06:55:39.425Z,1008.6
2018-07-29T06:56:41.454Z,1008.7
2018-07-29T06:57:43.799Z,1008.7
2018-07-29T06:58:45.851Z,1008.7
2018-07-29T06:59:48.180Z,1008.7
2018-07-29T07:00:50.220Z,1008.8
2018-07-29T07:01:52.267Z,1008.7
2018-07-29T07:02:54.304Z,1008.7
2018-07-29T07:03:56.344Z,1008.8
2018-07-29T07:04:58.398Z,1008.8
2018-07-29T07:06:00.439Z,1008.8
2018-07-29T07:07:03.064Z,1008.8
2018-07-29T07:08:05.117Z,1008.8
2018-07-29T07:09:07.154Z,1008.8
2018-07-29T07:10:09.192Z,1008.8
2018-07-29T07:11:11.242Z,1008.8
2018-07-29T07:12:13.661Z,1008.8
2018-07-29T07:13:15.712Z,1008.9
2018-07-29T07:14:18.037Z,1008.9
2018-07-29T07:15:20.088Z,1008.8
2018-07-29T07:16:22.126Z,1008.9
2018-07-29T07:17:24.546Z,1008.8
2018-07-29T07:18:26.876Z,1008.9
2018-07-29T07:19:28.924Z,1008.9
2018-07-29T07:20:30.959Z,1008.9
2018-07-29T07:21:33.400Z,1008.9
2018-07-29T07:22:35.443Z,1008.9
2018-07-29T07:23:37.498Z,1008.9
2018-07-29T07:24:39.538Z,1008.9
2018-07-29T07:25:41.586Z,1008.9
2018-07-29T07:26:43.624Z,1009
2018-07-29T07:27:45.665Z,1008.9
2018-07-29T07:28:47.720Z,1008.9
2018-07-29T07:29:50.044Z,1008.9
2018-07-29T07:30:52.088Z,1008.9
2018-07-29T07:31:54.136Z,1009
2018-07-29T07:32:56.179Z,1009
2018-07-29T07:33:58.221Z,1009
2018-07-29T07:35:00.273Z,1009
2018-07-29T07:36:02.315Z,1009
2018-07-29T07:37:04.360Z,1009
2018-07-29T07:38:06.427Z,1009
2018-07-29T07:39:08.461Z,1009
2018-07-29T07:40:10.500Z,1009
2018-07-29T07:41:12.842Z,1009
2018-07-29T07:42:15.264Z,1009.1
2018-07-29T07:43:17.302Z,1009.1
2018-07-29T07:44:19.641Z,1009.1
2018-07-29T07:45:21.690Z,1009.2
2018-07-29T07:46:24.140Z,1009.2
2018-07-29T07:47:26.187Z,1009.2
2018-07-29T07:48:28.235Z,1009.2
2018-07-29T07:49:30.276Z,1009.2
2018-07-29T07:50:32.616Z,1009.2
2018-07-29T07:51:34.660Z,1009.3
2018-07-29T07:52:36.703Z,1009.3
2018-07-29T07:53:38.767Z,1009.2
2018-07-29T07:54:40.820Z,1009.2
2018-07-29T07:55:42.859Z,1009.2
2018-07-29T07:56:44.910Z,1009.2
2018-07-29T07:57:47.238Z,1009.2
2018-07-29T07:58:49.282Z,1009.3
2018-07-29T07:59:51.324Z,1009.3
2018-07-29T08:00:53.379Z,1009.3
2018-07-29T08:01:55.798Z,1009.3
2018-07-29T08:02:58.222Z,1009.3
2018-07-29T08:04:00.274Z,1009.3
2018-07-29T08:05:02.321Z,1009.3
2018-07-29T08:06:04.361Z,1009.3
2018-07-29T08:07:06.397Z,1009.3
2018-07-29T08:08:08.449Z,1009.3
2018-07-29T08:09:10.487Z,1009.3
2018-07-29T08:10:12.956Z,1009.3
2018-07-29T08:11:15.376Z,1009.3
2018-07-29T08:12:17.805Z,1009.3
2018-07-29T08:13:20.128Z,1009.3
2018-07-29T08:14:22.180Z,1009.3
2018-07-29T08:15:24.219Z,1009.3
2018-07-29T08:16:26.318Z,1009.3
2018-07-29T08:17:28.310Z,1009.3
2018-07-29T08:18:30.344Z,1009.3
2018-07-29T08:19:32.392Z,1009.3
2018-07-29T08:20:34.436Z,1009.3
2018-07-29T08:21:36.783Z,1009.3
2018-07-29T08:22:38.820Z,1009.3
2018-07-29T08:23:40.872Z,1009.3
2018-07-29T08:24:42.920Z,1009.3
2018-07-29T08:25:45.238Z,1009.3
2018-07-29T08:26:47.295Z,1009.3
2018-07-29T08:27:49.329Z,1009.2
2018-07-29T08:28:51.376Z,1009.3
2018-07-29T08:29:53.418Z,1009.3
2018-07-29T08:30:55.471Z,1009.3
2018-07-29T08:31:57.509Z,1009.3
2018-07-29T08:32:59.550Z,1009.3
2018-07-29T08:34:01.881Z,1009.3
2018-07-29T08:35:03.938Z,1009.3
2018-07-29T08:36:05.974Z,1009.3
2018-07-29T08:37:08.022Z,1009.3
2018-07-29T08:38:10.074Z,1009.3
2018-07-29T08:39:12.122Z,1009.3
2018-07-29T08:40:14.164Z,1009.3
2018-07-29T08:41:16.214Z,1009.3
2018-07-29T08:42:18.252Z,1009.2
2018-07-29T08:43:20.301Z,1009.2
2018-07-29T08:44:22.358Z,1009.2
2018-07-29T08:45:24.435Z,1009.3
2018-07-29T08:46:26.862Z,1009.3
2018-07-29T08:47:28.939Z,1009.2
2018-07-29T08:48:30.953Z,1009.2
2018-07-29T08:49:32.996Z,1009.2
2018-07-29T08:50:35.049Z,1009.2
2018-07-29T08:51:37.086Z,1009.2
2018-07-29T08:52:39.136Z,1009.2
2018-07-29T08:53:41.184Z,1009.3
2018-07-29T08:54:43.629Z,1009.2
2018-07-29T08:55:45.672Z,1009.2
2018-07-29T08:56:47.724Z,1009.3
2018-07-29T08:57:49.782Z,1009.3
2018-07-29T08:58:51.826Z,1009.2
2018-07-29T08:59:53.885Z,1009.3
2018-07-29T09:00:55.928Z,1009.3
2018-07-29T09:01:57.981Z,1009.3
2018-07-29T09:03:00.025Z,1009.3
2018-07-29T09:04:02.143Z,1009.3
2018-07-29T09:05:04.482Z,1009.3
2018-07-29T09:06:06.539Z,1009.2
2018-07-29T09:07:08.589Z,1009.3
2018-07-29T09:08:10.630Z,1009.2
2018-07-29T09:09:12.978Z,1009.2
2018-07-29T09:10:15.029Z,1009.2
2018-07-29T09:11:17.369Z,1009.2
2018-07-29T09:12:19.417Z,1009.3
2018-07-29T09:13:21.775Z,1009.2
2018-07-29T09:14:23.819Z,1009.2
2018-07-29T09:15:25.875Z,1009.2
2018-07-29T09:16:27.930Z,1009.2
2018-07-29T09:17:29.970Z,1009.2
2018-07-29T09:18:32.298Z,1009.2
2018-07-29T09:19:34.350Z,1009.2
2018-07-29T09:20:36.703Z,1009.2
2018-07-29T09:21:38.811Z,1009.3
2018-07-29T09:22:40.815Z,1009.2
2018-07-29T09:23:42.853Z,1009.2
2018-07-29T09:24:44.910Z,1009.1
2018-07-29T09:25:47.252Z,1009.2
2018-07-29T09:26:49.302Z,1009.2
2018-07-29T09:27:51.345Z,1009.2
2018-07-29T09:28:53.784Z,1009.2
2018-07-29T09:29:55.840Z,1009.2
2018-07-29T09:30:58.335Z,1009.2
2018-07-29T09:32:00.324Z,1009.1
2018-07-29T09:33:02.362Z,1009.2
2018-07-29T09:34:04.711Z,1009.1
2018-07-29T09:35:07.065Z,1009.1
2018-07-29T09:36:09.121Z,1009.1
2018-07-29T09:37:11.453Z,1009.1
2018-07-29T09:38:14.200Z,1009
2018-07-29T09:39:16.262Z,1009
2018-07-29T09:40:18.307Z,1009
2018-07-29T09:41:20.693Z,1009
2018-07-29T09:42:22.733Z,1009
2018-07-29T09:43:24.787Z,1009
2018-07-29T09:44:26.845Z,1009
2018-07-29T09:45:29.196Z,1009
2018-07-29T09:46:31.519Z,1008.9
2018-07-29T09:47:33.958Z,1008.9
2018-07-29T09:48:36.014Z,1009
2018-07-29T09:49:38.070Z,1008.9
2018-07-29T09:50:40.116Z,1008.9
2018-07-29T09:51:42.173Z,1008.9
2018-07-29T09:52:44.236Z,1008.9
2018-07-29T09:53:46.285Z,1008.9
2018-07-29T09:54:48.680Z,1008.9
2018-07-29T09:55:50.690Z,1008.9
2018-07-29T09:56:53.025Z,1008.9
2018-07-29T09:57:55.089Z,1008.9
2018-07-29T09:58:57.413Z,1008.9
2018-07-29T09:59:59.464Z,1008.9
2018-07-29T10:01:01.511Z,1008.9
2018-07-29T10:02:03.571Z,1008.9
2018-07-29T10:03:05.642Z,1008.9
2018-07-29T10:04:08.103Z,1008.9
2018-07-29T10:05:10.161Z,1008.9
2018-07-29T10:06:12.610Z,1008.8
2018-07-29T10:07:14.672Z,1008.8
2018-07-29T10:08:16.742Z,1008.8
2018-07-29T10:09:18.848Z,1008.8
2018-07-29T10:10:20.851Z,1008.8
2018-07-29T10:11:22.912Z,1008.8
2018-07-29T10:12:24.962Z,1008.8
2018-07-29T10:13:27.302Z,1008.8
2018-07-29T10:14:29.374Z,1008.8
2018-07-29T10:15:31.815Z,1008.8
2018-07-29T10:16:33.855Z,1008.8
2018-07-29T10:17:35.917Z,1008.8
2018-07-29T10:18:37.976Z,1008.8
2018-07-29T10:19:40.028Z,1008.8
2018-07-29T10:20:42.086Z,1008.8
2018-07-29T10:21:44.137Z,1008.8
2018-07-29T10:22:46.190Z,1008.8
2018-07-29T10:23:48.257Z,1008.8
2018-07-29T10:24:50.619Z,1008.8
2018-07-29T10:25:53.055Z,1008.7
2018-07-29T10:26:55.118Z,1008.7
2018-07-29T10:27:57.449Z,1008.7
2018-07-29T10:28:59.501Z,1008.7
2018-07-29T10:30:01.565Z,1008.7
2018-07-29T10:31:03.616Z,1008.6
2018-07-29T10:32:05.671Z,1008.6
2018-07-29T10:33:08.114Z,1008.7
2018-07-29T10:34:10.173Z,1008.6
2018-07-29T10:35:12.227Z,1008.6
2018-07-29T10:36:14.289Z,1008.6
2018-07-29T10:37:16.344Z,1008.6
2018-07-29T10:38:18.398Z,1008.6
2018-07-29T10:39:20.466Z,1008.6
2018-07-29T10:40:22.516Z,1008.7
2018-07-29T10:41:24.576Z,1008.6
2018-07-29T10:42:26.627Z,1008.6
2018-07-29T10:43:28.692Z,1008.7
2018-07-29T10:44:30.748Z,1008.7
2018-07-29T10:45:32.812Z,1008.7
2018-07-29T10:46:35.161Z,1008.7
2018-07-29T10:47:37.207Z,1008.7
2018-07-29T10:48:39.274Z,1008.7
2018-07-29T10:49:41.616Z,1008.7
2018-07-29T10:50:43.669Z,1008.7
2018-07-29T10:51:45.730Z,1008.7
2018-07-29T10:52:47.791Z,1008.7
2018-07-29T10:53:49.849Z,1008.7
2018-07-29T10:54:51.914Z,1008.7
2018-07-29T10:55:53.973Z,1008.6
2018-07-29T10:56:56.312Z,1008.7
2018-07-29T10:57:58.751Z,1008.6
2018-07-29T10:59:01.205Z,1008.6
2018-07-29T11:00:03.263Z,1008.6
2018-07-29T11:01:05.999Z,1008.6
2018-07-29T11:02:08.064Z,1008.6
2018-07-29T11:03:10.422Z,1008.6
2018-07-29T11:04:12.748Z,1008.6
2018-07-29T11:05:15.361Z,1008.6
2018-07-29T11:06:17.340Z,1008.5
2018-07-29T11:07:19.797Z,1008.5
2018-07-29T11:08:21.850Z,1008.5
2018-07-29T11:09:23.914Z,1008.5
2018-07-29T11:10:26.361Z,1008.5
2018-07-29T11:11:28.471Z,1008.5
2018-07-29T11:12:30.490Z,1008.5
2018-07-29T11:13:32.579Z,1008.5
2018-07-29T11:14:34.602Z,1008.4
2018-07-29T11:15:36.944Z,1008.5
2018-07-29T11:16:39.291Z,1008.5
2018-07-29T11:17:41.345Z,1008.4
2018-07-29T11:18:43.699Z,1008.5
2018-07-29T11:19:45.768Z,1008.4
2018-07-29T11:20:47.819Z,1008.4
2018-07-29T11:21:50.194Z,1008.4
2018-07-29T11:22:52.253Z,1008.4
2018-07-29T11:23:54.762Z,1008.4
2018-07-29T11:24:56.755Z,1008.4
2018-07-29T11:25:58.830Z,1008.5
2018-07-29T11:27:01.173Z,1008.4
2018-07-29T11:28:03.238Z,1008.5
2018-07-29T11:29:05.685Z,1008.5
2018-07-29T11:30:07.733Z,1008.5
2018-07-29T11:31:09.794Z,1008.5
2018-07-29T11:32:11.863Z,1008.4
2018-07-29T11:33:13.921Z,1008.4
2018-07-29T11:34:16.304Z,1008.4
2018-07-29T11:35:18.370Z,1008.4
2018-07-29T11:36:20.426Z,1008.4
2018-07-29T11:37:22.502Z,1008.3
2018-07-29T11:38:24.558Z,1008.4
2018-07-29T11:39:26.626Z,1008.4
2018-07-29T11:40:28.681Z,1008.4
2018-07-29T11:41:30.749Z,1008.4
2018-07-29T11:42:32.804Z,1008.3
2018-07-29T11:43:34.866Z,1008.3
2018-07-29T11:44:36.933Z,1008.3
2018-07-29T11:45:38.978Z,1008.3
2018-07-29T11:46:41.050Z,1008.3
2018-07-29T11:47:43.109Z,1008.2
2018-07-29T11:48:45.196Z,1008.2
2018-07-29T11:49:47.251Z,1008.2
2018-07-29T11:50:49.319Z,1008.2
2018-07-29T11:51:51.445Z,1008.2
2018-07-29T11:52:53.437Z,1008.2
2018-07-29T11:53:55.511Z,1008.2
2018-07-29T11:54:57.565Z,1008.2
2018-07-29T11:55:59.628Z,1008.2
2018-07-29T11:57:02.008Z,1008.2
2018-07-29T11:58:04.349Z,1008.2
2018-07-29T11:59:06.406Z,1008.2
2018-07-29T12:00:08.879Z,1008.2
2018-07-29T12:01:11.499Z,1008.1
2018-07-29T12:02:13.558Z,1008.2
2018-07-29T12:03:15.628Z,1008.1
2018-07-29T12:04:17.691Z,1008.1
2018-07-29T12:05:19.749Z,1008.2
2018-07-29T12:06:22.118Z,1008.2
2018-07-29T12:07:24.177Z,1008.2
2018-07-29T12:08:26.231Z,1008.2
2018-07-29T12:09:28.298Z,1008.2
2018-07-29T12:10:30.641Z,1008.2
2018-07-29T12:11:32.711Z,1008.2
2018-07-29T12:12:34.774Z,1008.2
2018-07-29T12:13:36.842Z,1008.2
2018-07-29T12:14:38.900Z,1008.2
2018-07-29T12:15:40.963Z,1008.2
2018-07-29T12:16:43.309Z,1008.1
2018-07-29T12:17:45.363Z,1008.2
2018-07-29T12:18:47.424Z,1008.2
2018-07-29T12:19:49.493Z,1008.1
2018-07-29T12:20:51.559Z,1008.1
2018-07-29T12:21:53.624Z,1008.2
2018-07-29T12:22:55.679Z,1008.1
2018-07-29T12:23:57.746Z,1008.2
2018-07-29T12:24:59.806Z,1008.1
2018-07-29T12:26:01.862Z,1008.1
2018-07-29T12:27:03.931Z,1008.1
2018-07-29T12:28:05.982Z,1008.1
2018-07-29T12:29:08.047Z,1008
2018-07-29T12:30:10.110Z,1008.1
2018-07-29T12:31:12.171Z,1008.1
2018-07-29T12:32:14.224Z,1008
2018-07-29T12:33:16.289Z,1008
2018-07-29T12:34:18.347Z,1008
2018-07-29T12:35:20.415Z,1008.1
2018-07-29T12:36:22.481Z,1008.1
2018-07-29T12:37:24.542Z,1008.1
2018-07-29T12:38:26.595Z,1008
2018-07-29T12:39:28.759Z,1008.1
2018-07-29T12:40:31.405Z,1008
2018-07-29T12:41:33.463Z,1008
2018-07-29T12:42:35.534Z,1008
2018-07-29T12:43:37.585Z,1008
2018-07-29T12:44:39.668Z,1008
2018-07-29T12:45:42.449Z,1008
2018-07-29T12:46:44.524Z,1008
2018-07-29T12:47:46.583Z,1008
2018-07-29T12:48:48.652Z,1008
2018-07-29T12:49:50.719Z,1008
2018-07-29T12:50:52.773Z,1007.9
2018-07-29T12:51:54.867Z,1007.9
2018-07-29T12:52:57.565Z,1007.9
2018-07-29T12:53:59.689Z,1007.9
2018-07-29T12:55:01.753Z,1007.9
2018-07-29T12:56:04.216Z,1007.8
2018-07-29T12:57:06.275Z,1007.9
2018-07-29T12:58:08.334Z,1007.9
2018-07-29T12:59:10.405Z,1007.8
2018-07-29T13:00:12.477Z,1007.8
2018-07-29T13:01:14.531Z,1007.8